Time;durP1;ratioP1;P1;durP2;ratioP2;P2;SDS_P1;SDS_P2;PMS_P1;PMS_P2;Temp;Humidity;BMP_temperature;BMP_pressure;BME280_temperature;BME280_humidity;BME280_pressure;Samples;Min_cycle;Max_cycle;Signal;HPM_P1;HPM_P2
2023/04/11 00:02:17;;;;;;;6.87;6.27;;;12.80;27.90;;;;;;10339090;28;20230;-66
2023/04/11 00:07:22;;;;;;;6.50;5.90;;;12.80;28.00;;;;;;10335404;28;20231;-66
2023/04/11 00:12:25;;;;;;;6.23;5.73;;;12.70;28.20;;;;;;10334177;28;20253;-65
2023/04/11 00:17:30;;;;;;;6.40;5.90;;;12.70;28.10;;;;;;10332471;28;20899;-65
2023/04/11 00:22:35;;;;;;;6.17;5.57;;;12.70;28.10;;;;;;10336351;28;20227;-66
2023/04/11 00:27:38;;;;;;;6.30;5.70;;;12.70;28.40;;;;;;10336266;28;20245;-66
2023/04/11 00:32:41;;;;;;;5.57;5.10;;;12.70;28.30;;;;;;10337450;28;20227;-66
2023/04/11 00:37:48;;;;;;;6.20;5.60;;;12.60;28.30;;;;;;10337765;28;20313;-66
2023/04/11 00:42:51;;;;;;;5.90;5.40;;;12.60;28.50;;;;;;10333791;28;20238;-66
2023/04/11 00:47:54;;;;;;;5.97;5.47;;;12.60;28.50;;;;;;10336846;28;20258;-65
2023/04/11 00:52:59;;;;;;;6.10;5.50;;;12.60;28.60;;;;;;10335141;28;20618;-65
2023/04/11 00:58:03;;;;;;;5.97;5.30;;;12.60;28.80;;;;;;10331775;28;20231;-66
2023/04/11 01:03:07;;;;;;;5.90;5.40;;;12.60;28.70;;;;;;10333250;28;20237;-66
2023/04/11 01:08:13;;;;;;;5.30;4.80;;;12.60;28.80;;;;;;10331244;28;20269;-66
2023/04/11 01:13:17;;;;;;;5.10;4.60;;;12.70;29.00;;;;;;10334122;28;20524;-66
2023/04/11 01:18:20;;;;;;;5.30;4.80;;;12.70;28.80;;;;;;10337678;28;20685;-66
2023/04/11 01:23:25;;;;;;;5.47;4.97;;;12.80;28.80;;;;;;10334027;28;20233;-66
2023/04/11 01:28:28;;;;;;;5.60;5.10;;;12.80;29.10;;;;;;10334003;28;20241;-65
2023/04/11 01:33:31;;;;;;;5.50;5.00;;;12.80;28.80;;;;;;10333283;28;20241;-66
2023/04/11 01:38:36;;;;;;;5.50;5.10;;;12.80;28.90;;;;;;10334827;28;20230;-66
2023/04/11 01:43:39;;;;;;;6.00;4.87;;;12.80;29.10;;;;;;10328579;28;20706;-65
2023/04/11 01:48:44;;;;;;;5.40;4.90;;;12.80;29.00;;;;;;10337539;28;20242;-66
2023/04/11 01:53:49;;;;;;;5.33;4.83;;;12.80;29.10;;;;;;10331530;28;20837;-66
2023/04/11 01:58:52;;;;;;;4.50;4.10;;;12.80;29.30;;;;;;10337642;28;20237;-65
2023/04/11 02:03:55;;;;;;;4.97;4.57;;;12.80;29.10;;;;;;10331935;28;20233;-66
2023/04/11 02:09:00;;;;;;;5.17;4.77;;;12.90;29.20;;;;;;10333434;28;20227;-65
2023/04/11 02:14:05;;;;;;;4.93;4.53;;;12.90;29.30;;;;;;10329846;28;20230;-66
2023/04/11 02:19:08;;;;;;;5.60;4.30;;;13.00;29.30;;;;;;10333091;28;20242;-66
2023/04/11 02:24:12;;;;;;;4.30;4.00;;;13.00;29.50;;;;;;10331185;28;20230;-66
2023/04/11 02:29:16;;;;;;;4.40;4.10;;;13.10;29.80;;;;;;10335049;28;20746;-66
2023/04/11 02:34:19;;;;;;;5.00;4.60;;;13.10;29.60;;;;;;10332206;28;20249;-66
2023/04/11 02:39:23;;;;;;;4.37;3.97;;;13.10;29.70;;;;;;10330053;28;20239;-66
2023/04/11 02:44:28;;;;;;;4.30;3.97;;;13.10;30.10;;;;;;10340599;28;20226;-66
2023/04/11 02:49:31;;;;;;;5.17;4.77;;;13.10;30.10;;;;;;10343012;28;20707;-66
2023/04/11 02:54:36;;;;;;;4.47;4.07;;;13.10;30.40;;;;;;10342050;28;20230;-66
2023/04/11 02:59:39;;;;;;;3.93;3.63;;;13.10;30.40;;;;;;10338762;28;20431;-66
2023/04/11 03:04:42;;;;;;;4.60;4.20;;;13.10;30.40;;;;;;10342966;28;20242;-66
2023/04/11 03:09:46;;;;;;;4.60;4.20;;;13.10;30.40;;;;;;10339872;28;20595;-66
2023/04/11 03:14:50;;;;;;;4.70;4.30;;;13.10;30.60;;;;;;10336045;28;20233;-66
2023/04/11 03:19:53;;;;;;;4.77;4.37;;;13.10;30.40;;;;;;10340985;28;20227;-66
2023/04/11 03:24:58;;;;;;;5.00;4.60;;;13.10;30.50;;;;;;10337752;28;20346;-66
2023/04/11 03:30:02;;;;;;;5.10;4.60;;;13.10;31.20;;;;;;10340146;28;20214;-69
2023/04/11 03:35:06;;;;;;;3.63;3.33;;;13.10;30.80;;;;;;10339315;28;20739;-67
2023/04/11 03:40:11;;;;;;;4.20;3.77;;;13.10;31.30;;;;;;10338066;28;20667;-66
2023/04/11 03:45:14;;;;;;;3.97;3.67;;;13.00;31.80;;;;;;10339602;28;20613;-67
2023/04/11 03:50:18;;;;;;;3.97;3.60;;;13.10;31.60;;;;;;10338573;28;20231;-66
2023/04/11 03:55:22;;;;;;;4.50;3.70;;;13.10;31.70;;;;;;10335471;28;20237;-66
2023/04/11 04:00:26;;;;;;;4.60;4.20;;;13.10;32.40;;;;;;10339503;28;20598;-73
2023/04/11 04:05:29;;;;;;;3.97;3.67;;;13.10;32.00;;;;;;10339325;28;20234;-73
2023/04/11 04:10:34;;;;;;;4.00;3.70;;;13.10;32.00;;;;;;10336707;28;20227;-73
2023/04/11 04:15:37;;;;;;;4.20;3.80;;;13.10;32.60;;;;;;10340254;28;20237;-73
2023/04/11 04:20:41;;;;;;;3.73;3.40;;;13.10;32.20;;;;;;10340833;28;20230;-73
2023/04/11 04:25:48;;;;;;;3.70;3.50;;;13.10;32.80;;;;;;10337777;28;20677;-73
2023/04/11 04:30:52;;;;;;;4.03;3.63;;;13.10;33.40;;;;;;10336069;28;20281;-73
2023/04/11 04:35:58;;;;;;;3.57;3.30;;;13.10;32.50;;;;;;10337839;28;20237;-72
2023/04/11 04:41:04;;;;;;;4.03;3.73;;;13.10;32.60;;;;;;10334665;28;20771;-70
2023/04/11 04:46:08;;;;;;;3.90;3.50;;;13.10;33.20;;;;;;10336688;28;20227;-73
2023/04/11 04:51:11;;;;;;;4.47;3.90;;;13.10;33.00;;;;;;10334781;28;20233;-73
2023/04/11 04:56:16;;;;;;;4.00;3.60;;;13.20;32.90;;;;;;10336579;28;20223;-73
2023/04/11 05:01:20;;;;;;;3.80;3.50;;;13.20;33.40;;;;;;10336087;28;20710;-73
2023/04/11 05:06:23;;;;;;;3.40;3.10;;;13.20;33.00;;;;;;10338054;28;20230;-73
2023/04/11 05:11:28;;;;;;;4.03;3.70;;;13.20;33.00;;;;;;10337850;28;20239;-72
2023/04/11 05:16:32;;;;;;;4.53;4.13;;;13.20;33.70;;;;;;10335221;28;20241;-72
2023/04/11 05:21:36;;;;;;;3.60;3.30;;;13.30;33.40;;;;;;10333276;28;21014;-73
2023/04/11 05:26:40;;;;;;;5.13;4.17;;;13.30;33.20;;;;;;10340201;28;20234;-73
2023/04/11 05:31:44;;;;;;;2.87;2.67;;;13.30;33.90;;;;;;10335488;28;20230;-74
2023/04/11 05:36:47;;;;;;;2.60;2.40;;;13.40;33.10;;;;;;10333488;28;20225;-74
2023/04/11 05:41:52;;;;;;;2.80;2.60;;;13.50;33.10;;;;;;10337470;28;20231;-74
2023/04/11 05:46:55;;;;;;;2.53;2.33;;;13.60;33.70;;;;;;10334618;28;20700;-74
2023/04/11 05:51:58;;;;;;;2.80;2.60;;;13.70;33.50;;;;;;10338088;28;20230;-74
2023/04/11 05:57:03;;;;;;;3.00;2.80;;;13.80;33.60;;;;;;10344940;28;20635;-73
2023/04/11 06:02:06;;;;;;;2.93;2.73;;;13.80;34.10;;;;;;10337648;28;20245;-74
2023/04/11 06:07:09;;;;;;;3.00;2.80;;;13.90;33.90;;;;;;10337962;28;20601;-74
2023/04/11 06:12:14;;;;;;;3.87;2.67;;;13.90;34.10;;;;;;10334480;28;20229;-76
2023/04/11 06:17:17;;;;;;;2.93;2.73;;;13.80;34.70;;;;;;10335809;28;20238;-74
2023/04/11 06:22:20;;;;;;;3.10;2.80;;;13.80;34.40;;;;;;10330778;28;20875;-73
2023/04/11 06:27:30;;;;;;;3.27;3.07;;;13.80;34.50;;;;;;10328781;28;20231;-73
2023/04/11 06:32:34;;;;;;;2.90;2.70;;;13.80;35.90;;;;;;10326000;28;20284;-73
2023/04/11 06:37:37;;;;;;;3.20;2.90;;;13.80;34.70;;;;;;10335240;28;20320;-73
2023/04/11 06:42:42;;;;;;;2.73;2.53;;;13.80;35.00;;;;;;10334551;28;20231;-73
2023/04/11 06:47:45;;;;;;;2.80;2.60;;;13.70;35.50;;;;;;10333770;28;20235;-73
2023/04/11 06:52:48;;;;;;;2.27;2.10;;;13.70;35.30;;;;;;10332488;28;20230;-72
2023/04/11 06:57:53;;;;;;;3.30;2.10;;;13.60;35.60;;;;;;10336040;28;20297;-73
2023/04/11 07:02:56;;;;;;;2.60;2.40;;;13.70;36.50;;;;;;10333842;28;20227;-73
2023/04/11 07:07:59;;;;;;;3.33;3.00;;;13.70;35.90;;;;;;10329283;28;20723;-73
2023/04/11 07:13:04;;;;;;;2.60;2.40;;;13.70;35.90;;;;;;10332483;28;20585;-73
2023/04/11 07:18:07;;;;;;;2.43;1.50;;;13.80;36.40;;;;;;10332663;28;20230;-73
2023/04/11 07:23:10;;;;;;;1.57;1.47;;;13.90;35.70;;;;;;10332580;28;20237;-74
2023/04/11 07:28:15;;;;;;;1.97;1.37;;;13.90;35.90;;;;;;10327882;28;20223;-73
2023/04/11 07:33:18;;;;;;;1.40;1.30;;;13.90;36.40;;;;;;10333752;28;20224;-71
2023/04/11 07:38:28;;;;;;;1.50;1.40;;;13.90;35.80;;;;;;10339532;28;20238;-73
2023/04/11 07:43:33;;;;;;;0.97;0.97;;;13.90;36.40;;;;;;10344179;28;20231;-73
2023/04/11 07:48:36;;;;;;;0.73;0.70;;;13.90;36.60;;;;;;10334831;28;20238;-73
2023/04/11 07:53:39;;;;;;;0.53;0.53;;;13.80;35.80;;;;;;10335820;28;20231;-73
2023/04/11 07:58:44;;;;;;;1.47;0.70;;;13.70;36.00;;;;;;10339063;28;20241;-72
2023/04/11 08:03:47;;;;;;;0.77;0.77;;;13.70;36.10;;;;;;10333339;28;20230;-73
2023/04/11 08:08:51;;;;;;;0.77;0.60;;;13.50;35.60;;;;;;10334766;28;20250;-73
2023/04/11 08:13:55;;;;;;;0.73;0.60;;;13.30;35.50;;;;;;10335390;28;20237;-73
2023/04/11 08:18:59;;;;;;;0.50;0.50;;;13.00;35.60;;;;;;10335118;28;20235;-73
2023/04/11 08:24:02;;;;;;;0.50;0.50;;;12.80;35.70;;;;;;10336038;28;20226;-73
2023/04/11 08:29:09;;;;;;;0.60;0.60;;;12.70;36.00;;;;;;10336323;28;20227;-73
2023/04/11 08:34:13;;;;;;;0.40;0.40;;;12.70;36.30;;;;;;10333897;28;20245;-73
2023/04/11 08:39:16;;;;;;;0.53;0.53;;;12.60;36.20;;;;;;10337258;28;20235;-73
2023/04/11 08:44:21;;;;;;;0.60;0.60;;;12.60;36.30;;;;;;10331749;28;20238;-73
2023/04/11 08:49:24;;;;;;;0.50;0.50;;;12.50;36.80;;;;;;10337177;28;20227;-73
2023/04/11 08:54:27;;;;;;;1.00;0.57;;;12.50;36.50;;;;;;10340418;28;20230;-73
2023/04/11 08:59:33;;;;;;;0.70;0.70;;;12.60;36.60;;;;;;10339088;28;20238;-73
2023/04/11 09:04:40;;;;;;;0.60;0.60;;;12.70;37.30;;;;;;10342381;28;20230;-73
2023/04/11 09:09:43;;;;;;;0.73;0.63;;;12.70;37.20;;;;;;10342832;28;20232;-73
2023/04/11 09:14:48;;;;;;;0.60;0.60;;;12.80;36.80;;;;;;10337085;28;20230;-73
2023/04/11 09:19:51;;;;;;;0.80;0.70;;;12.80;37.10;;;;;;10342854;28;20257;-74
2023/04/11 09:25:02;;;;;;;0.70;0.70;;;12.90;37.10;;;;;;10337037;28;20245;-69
2023/04/11 09:30:21;;;;;;;0.70;0.70;;;13.00;38.00;;;;;;10336811;28;20218;-69
2023/04/11 09:35:27;;;;;;;0.80;0.80;;;13.10;37.90;;;;;;10332276;28;20305;-69
2023/04/11 09:40:30;;;;;;;0.90;0.80;;;13.20;36.90;;;;;;10334488;28;20731;-69
2023/04/11 09:45:35;;;;;;;1.33;0.80;;;13.20;36.50;;;;;;10337511;28;20234;-69
2023/04/11 09:50:56;;;;;;;2.37;1.00;;;13.20;36.40;;;;;;10335960;28;20226;-68
2023/04/11 09:56:01;;;;;;;1.50;1.00;;;13.20;36.30;;;;;;10334517;28;20586;-69
2023/04/11 10:01:08;;;;;;;2.93;1.17;;;13.20;36.20;;;;;;10334375;28;20305;-69
2023/04/11 10:06:19;;;;;;;1.70;1.00;;;13.20;36.10;;;;;;10333962;28;20641;-68
2023/04/11 10:11:23;;;;;;;1.63;0.97;;;13.20;35.70;;;;;;10333078;28;20249;-68
2023/04/11 10:16:31;;;;;;;2.83;1.00;;;13.20;36.00;;;;;;10332191;28;20305;-69
2023/04/11 10:21:41;;;;;;;1.57;1.10;;;13.30;35.80;;;;;;10333446;28;20236;-68
2023/04/11 10:26:49;;;;;;;2.03;1.13;;;13.30;36.00;;;;;;10335288;28;20253;-68
2023/04/11 10:32:12;;;;;;;2.57;1.30;;;13.40;35.40;;;;;;10331533;28;20605;-68
2023/04/11 10:37:15;;;;;;;2.30;1.30;;;13.40;35.20;;;;;;10332998;28;20230;-68
2023/04/11 10:42:28;;;;;;;1.80;1.20;;;13.50;34.60;;;;;;10335501;28;20239;-67
2023/04/11 10:47:32;;;;;;;2.10;1.07;;;13.50;34.20;;;;;;10334452;28;20231;-67
2023/04/11 10:52:37;;;;;;;1.90;1.10;;;13.50;34.50;;;;;;10330937;28;20759;-67
2023/04/11 10:58:06;;;;;;;1.90;1.10;;;13.60;34.80;;;;;;10334228;28;20234;-68
2023/04/11 11:03:15;;;;;;;1.50;1.17;;;13.60;34.10;;;;;;10335647;28;20605;-68
2023/04/11 11:08:29;;;;;;;1.53;1.03;;;13.70;33.70;;;;;;10340340;28;20243;-68
2023/04/11 11:13:39;;;;;;;2.07;1.30;;;13.70;33.40;;;;;;10337747;28;20234;-68
2023/04/11 11:18:47;;;;;;;2.53;1.33;;;13.70;33.60;;;;;;10342101;28;20769;-68
2023/04/11 11:23:57;;;;;;;2.07;1.30;;;13.90;33.70;;;;;;10335902;28;20234;-68
2023/04/11 11:29:02;;;;;;;2.67;1.20;;;14.00;33.50;;;;;;10337841;28;20231;-68
2023/04/11 11:34:07;;;;;;;3.27;1.50;;;14.10;33.50;;;;;;10340808;28;20231;-68
2023/04/11 11:39:26;;;;;;;3.13;1.33;;;14.20;32.90;;;;;;10340088;28;20285;-75
2023/04/11 11:44:31;;;;;;;1.60;1.10;;;14.20;32.90;;;;;;10339902;28;20243;-68
2023/04/11 11:49:46;;;;;;;2.73;1.50;;;14.30;32.80;;;;;;10335887;28;20734;-69
2023/04/11 11:54:49;;;;;;;3.70;1.53;;;14.40;32.50;;;;;;10339626;28;20722;-69
2023/04/11 11:59:55;;;;;;;1.50;1.20;;;14.40;31.60;;;;;;10339696;28;20226;-69
2023/04/11 12:05:02;;;;;;;1.30;1.20;;;14.50;32.50;;;;;;10336866;28;20798;-69
2023/04/11 12:10:08;;;;;;;3.67;1.37;;;14.60;32.40;;;;;;10333125;28;20305;-69
2023/04/11 12:15:12;;;;;;;2.23;1.20;;;14.70;31.80;;;;;;10337599;28;20719;-69
2023/04/11 12:20:22;;;;;;;2.80;1.00;;;14.90;32.00;;;;;;10331886;28;20635;-69
2023/04/11 12:25:25;;;;;;;3.03;1.40;;;15.00;31.50;;;;;;10334326;28;20235;-69
2023/04/11 12:30:28;;;;;;;1.07;1.00;;;15.10;31.30;;;;;;10336145;28;20330;-69
2023/04/11 12:35:33;;;;;;;2.17;1.53;;;15.20;31.30;;;;;;10334158;28;20226;-69
2023/04/11 12:40:36;;;;;;;3.20;1.63;;;15.30;30.50;;;;;;10334639;28;20241;-69
2023/04/11 12:45:40;;;;;;;2.00;1.40;;;15.30;30.00;;;;;;10332894;28;20609;-69
2023/04/11 12:50:44;;;;;;;2.83;1.40;;;15.30;30.60;;;;;;10338152;28;20874;-67
2023/04/11 12:55:47;;;;;;;1.40;1.10;;;15.40;30.80;;;;;;10332658;28;20857;-66
2023/04/11 13:00:51;;;;;;;10.67;7.80;;;15.50;30.80;;;;;;10328666;28;20232;-67
2023/04/11 13:05:55;;;;;;;3.57;2.17;;;15.60;30.70;;;;;;10329975;28;20242;-67
2023/04/11 13:10:58;;;;;;;2.80;1.50;;;15.80;30.00;;;;;;10333946;28;20238;-67
2023/04/11 13:16:01;;;;;;;2.00;1.13;;;15.80;29.80;;;;;;10333446;28;20263;-67
2023/04/11 13:21:06;;;;;;;2.67;1.30;;;15.80;29.90;;;;;;10332528;28;20222;-68
2023/04/11 13:26:10;;;;;;;2.17;0.90;;;15.80;29.30;;;;;;10334497;28;20234;-67
2023/04/11 13:31:13;;;;;;;1.50;1.10;;;15.80;29.40;;;;;;10327419;28;20222;-67
2023/04/11 13:36:17;;;;;;;1.40;1.10;;;15.70;28.60;;;;;;10330633;28;20241;-67
2023/04/11 13:41:21;;;;;;;1.87;1.00;;;15.80;28.90;;;;;;10331774;28;20234;-67
2023/04/11 13:46:24;;;;;;;3.53;1.30;;;15.90;28.50;;;;;;10329420;28;20333;-67
2023/04/11 13:51:30;;;;;;;1.00;0.90;;;16.00;27.90;;;;;;10334489;28;20226;-67
2023/04/11 13:56:33;;;;;;;2.10;1.00;;;16.10;26.90;;;;;;10331923;28;20688;-67
2023/04/11 14:01:38;;;;;;;2.10;1.10;;;16.10;26.90;;;;;;10328473;28;20233;-67
2023/04/11 14:06:43;;;;;;;1.23;0.90;;;16.10;27.10;;;;;;10330113;28;20894;-67
2023/04/11 14:11:46;;;;;;;1.33;1.10;;;16.10;26.60;;;;;;10337092;28;20583;-67
2023/04/11 14:16:49;;;;;;;1.00;0.90;;;16.10;26.70;;;;;;10331919;28;20725;-67
2023/04/11 14:21:53;;;;;;;2.33;1.10;;;16.10;27.60;;;;;;10332045;28;20227;-67
2023/04/11 14:26:57;;;;;;;0.80;0.80;;;16.10;26.30;;;;;;10327087;28;20231;-67
2023/04/11 14:32:00;;;;;;;3.17;1.37;;;16.10;26.80;;;;;;10329232;28;20226;-67
2023/04/11 14:37:05;;;;;;;2.80;1.30;;;16.20;27.10;;;;;;10335036;28;20226;-67
2023/04/11 14:42:08;;;;;;;2.13;1.20;;;16.30;26.50;;;;;;10333639;28;20235;-68
2023/04/11 14:47:12;;;;;;;2.03;1.10;;;16.40;26.90;;;;;;10335145;28;20232;-67
2023/04/11 14:52:16;;;;;;;1.70;1.20;;;16.50;26.60;;;;;;10338334;28;20218;-67
2023/04/11 14:57:22;;;;;;;1.80;1.07;;;16.60;26.40;;;;;;10340271;28;20230;-67
2023/04/11 15:02:25;;;;;;;1.90;1.00;;;16.50;26.10;;;;;;10338194;28;20231;-70
2023/04/11 15:07:31;;;;;;;1.40;1.13;;;16.40;26.20;;;;;;10336031;28;20595;-65
2023/04/11 15:12:34;;;;;;;3.30;1.00;;;16.40;26.20;;;;;;10340923;28;20233;-66
2023/04/11 15:17:40;;;;;;;1.37;1.10;;;16.40;26.20;;;;;;10338878;28;20249;-66
2023/04/11 15:22:46;;;;;;;1.63;1.00;;;16.30;25.50;;;;;;10335421;28;20226;-67
2023/04/11 15:27:50;;;;;;;2.77;1.10;;;16.30;25.60;;;;;;10331409;28;20767;-66
2023/04/11 15:32:53;;;;;;;1.47;1.20;;;16.20;25.90;;;;;;10338775;28;20224;-67
2023/04/11 15:37:59;;;;;;;2.70;1.20;;;16.20;25.50;;;;;;10331808;28;20227;-72
2023/04/11 15:43:02;;;;;;;1.60;1.00;;;16.10;25.40;;;;;;10338454;28;20513;-68
2023/04/11 15:48:06;;;;;;;1.30;0.97;;;15.80;25.80;;;;;;10334441;28;20265;-68
2023/04/11 15:53:11;;;;;;;3.07;1.03;;;15.60;26.10;;;;;;10334371;28;20336;-68
2023/04/11 15:58:15;;;;;;;2.67;1.00;;;15.40;26.40;;;;;;10335740;28;20222;-68
2023/04/11 16:03:18;;;;;;;2.73;1.20;;;15.30;26.80;;;;;;10332139;28;20242;-68
2023/04/11 16:08:22;;;;;;;1.73;0.93;;;15.30;27.10;;;;;;10336212;28;20702;-66
2023/04/11 16:13:26;;;;;;;2.53;1.30;;;15.20;27.20;;;;;;10335170;28;20237;-67
2023/04/11 16:18:29;;;;;;;2.30;1.20;;;15.20;27.50;;;;;;10336002;28;20242;-67
2023/04/11 16:23:33;;;;;;;1.70;0.90;;;15.30;27.70;;;;;;10331610;28;20291;-66
2023/04/11 16:28:36;;;;;;;1.80;1.10;;;15.30;27.60;;;;;;10332339;28;20718;-67
2023/04/11 16:33:39;;;;;;;1.90;1.10;;;15.40;27.60;;;;;;10334330;28;20230;-67
2023/04/11 16:38:44;;;;;;;2.30;1.07;;;15.40;27.60;;;;;;10335128;28;20231;-66
2023/04/11 16:43:47;;;;;;;2.40;1.03;;;15.50;27.60;;;;;;10333454;28;20230;-67
2023/04/11 16:48:50;;;;;;;2.23;1.00;;;15.50;27.70;;;;;;10332785;28;20690;-73
2023/04/11 16:53:55;;;;;;;1.33;1.00;;;15.60;28.00;;;;;;10330222;28;20231;-73
2023/04/11 16:58:59;;;;;;;2.57;1.00;;;15.60;27.90;;;;;;10336305;28;20513;-73
2023/04/11 17:04:02;;;;;;;0.97;0.90;;;15.60;27.90;;;;;;10326966;28;20230;-72
2023/04/11 17:09:08;;;;;;;2.80;1.17;;;15.70;28.00;;;;;;10330305;28;20729;-73
2023/04/11 17:14:11;;;;;;;2.73;1.00;;;15.70;27.90;;;;;;10330484;28;20329;-73
2023/04/11 17:19:14;;;;;;;1.37;0.90;;;15.70;27.90;;;;;;10330192;28;20226;-73
2023/04/11 17:24:19;;;;;;;1.40;0.90;;;15.70;28.00;;;;;;10330469;28;20241;-66
2023/04/11 17:29:22;;;;;;;1.60;1.03;;;15.70;28.20;;;;;;10330585;28;20234;-66
2023/04/11 17:34:25;;;;;;;1.23;0.63;;;15.70;28.10;;;;;;10332341;28;20238;-66
2023/04/11 17:39:29;;;;;;;2.63;1.03;;;15.70;28.10;;;;;;10327048;28;20703;-66
2023/04/11 17:44:32;;;;;;;1.10;1.00;;;15.70;28.20;;;;;;10331117;28;20711;-66
2023/04/11 17:49:36;;;;;;;2.73;1.73;;;15.60;28.10;;;;;;10331276;28;20285;-66
2023/04/11 17:54:40;;;;;;;1.70;1.50;;;15.60;28.10;;;;;;10328979;28;20235;-66
2023/04/11 17:59:44;;;;;;;2.20;1.73;;;15.50;28.10;;;;;;10332721;28;20624;-65
2023/04/11 18:04:48;;;;;;;2.60;1.93;;;15.40;28.00;;;;;;10332713;28;20313;-66
2023/04/11 18:09:52;;;;;;;3.90;2.70;;;15.30;28.00;;;;;;10333236;28;20230;-66
2023/04/11 18:14:56;;;;;;;3.30;2.47;;;15.20;28.20;;;;;;10331614;28;20911;-66
2023/04/11 18:19:59;;;;;;;6.53;3.17;;;15.20;28.20;;;;;;10330711;28;20219;-66
2023/04/11 18:25:04;;;;;;;6.03;4.80;;;15.10;28.20;;;;;;10330726;28;20226;-66
2023/04/11 18:30:11;;;;;;;6.87;5.77;;;14.90;28.40;;;;;;10331212;28;20694;-66
2023/04/11 18:35:14;;;;;;;6.20;5.60;;;14.90;28.50;;;;;;10331107;28;20645;-66
2023/04/11 18:40:18;;;;;;;8.07;5.50;;;14.90;28.50;;;;;;10328878;28;20600;-66
2023/04/11 18:45:22;;;;;;;5.23;4.20;;;14.80;28.50;;;;;;10332126;28;20693;-66
2023/04/11 18:50:26;;;;;;;5.23;4.70;;;14.80;28.40;;;;;;10329354;28;20231;-66
2023/04/11 18:55:31;;;;;;;4.63;4.13;;;14.70;28.40;;;;;;10332873;28;20234;-73
2023/04/11 19:00:34;;;;;;;5.13;4.40;;;14.60;28.50;;;;;;10331084;28;20234;-73
2023/04/11 19:05:37;;;;;;;5.57;4.67;;;14.60;28.50;;;;;;10326997;28;20234;-73
2023/04/11 19:10:42;;;;;;;6.00;5.17;;;14.50;28.20;;;;;;10332418;28;20774;-73
2023/04/11 19:15:45;;;;;;;5.23;4.80;;;14.40;27.90;;;;;;10329440;28;20638;-73
2023/04/11 19:20:50;;;;;;;6.00;5.40;;;14.20;27.80;;;;;;10329846;28;20257;-73
2023/04/11 19:25:55;;;;;;;5.37;4.87;;;14.00;27.70;;;;;;10337784;28;20242;-66
2023/04/11 19:30:58;;;;;;;4.77;3.83;;;13.80;27.80;;;;;;10331945;28;20238;-66
2023/04/11 19:36:01;;;;;;;3.00;2.70;;;13.60;28.00;;;;;;10336240;28;20226;-66
2023/04/11 19:41:14;;;;;;;2.93;2.40;;;13.40;28.10;;;;;;10336997;28;20223;-66
2023/04/11 19:46:17;;;;;;;4.07;2.47;;;13.30;28.60;;;;;;10340394;28;20234;-66
2023/04/11 19:51:21;;;;;;;5.50;4.23;;;13.30;28.30;;;;;;10339946;28;20215;-66
2023/04/11 19:56:26;;;;;;;4.63;3.10;;;13.10;27.90;;;;;;10340596;28;20234;-66
2023/04/11 20:01:31;;;;;;;3.83;3.33;;;12.80;27.80;;;;;;10334596;28;20234;-66
2023/04/11 20:06:34;;;;;;;3.30;3.00;;;12.50;27.90;;;;;;10333824;28;20753;-66
2023/04/11 20:11:39;;;;;;;5.03;2.93;;;12.10;28.20;;;;;;10331683;28;20230;-66
2023/04/11 20:16:42;;;;;;;3.80;3.00;;;12.00;28.50;;;;;;10334292;28;20284;-66
2023/04/11 20:21:45;;;;;;;3.17;2.67;;;11.90;28.70;;;;;;10329868;28;20223;-66
2023/04/11 20:26:50;;;;;;;3.13;2.50;;;12.00;28.80;;;;;;10331526;28;20243;-72
2023/04/11 20:31:53;;;;;;;3.33;2.73;;;12.00;28.90;;;;;;10331827;28;20223;-72
2023/04/11 20:36:59;;;;;;;3.67;3.23;;;12.00;28.80;;;;;;10337547;28;20281;-66
2023/04/11 20:42:04;;;;;;;3.17;2.87;;;12.00;28.80;;;;;;10338674;28;20223;-67
2023/04/11 20:47:07;;;;;;;6.00;3.77;;;12.00;28.80;;;;;;10336582;28;20284;-66
2023/04/11 20:52:11;;;;;;;5.53;3.97;;;12.00;28.60;;;;;;10334344;28;20246;-66
2023/04/11 20:57:15;;;;;;;3.83;3.33;;;12.00;28.60;;;;;;10333544;28;20234;-66
2023/04/11 21:02:18;;;;;;;4.20;3.30;;;11.80;28.20;;;;;;10336681;28;20234;-66
2023/04/11 21:07:22;;;;;;;5.13;4.17;;;11.60;28.10;;;;;;10333148;28;20249;-66
2023/04/11 21:12:27;;;;;;;5.90;3.60;;;11.40;28.30;;;;;;10336733;28;20669;-66
2023/04/11 21:17:33;;;;;;;5.03;3.60;;;11.20;28.60;;;;;;10332700;28;20238;-66
2023/04/11 21:22:36;;;;;;;4.60;3.43;;;11.20;28.80;;;;;;10334894;28;20284;-66
2023/04/11 21:27:41;;;;;;;5.37;3.90;;;11.10;28.60;;;;;;10330939;28;20240;-68
2023/04/11 21:32:44;;;;;;;4.97;3.67;;;11.00;28.40;;;;;;10334268;28;20598;-68
2023/04/11 21:37:47;;;;;;;6.57;3.53;;;10.80;28.30;;;;;;10337087;28;20226;-68
2023/04/11 21:42:54;;;;;;;4.87;3.37;;;10.70;28.50;;;;;;10335484;28;20223;-68
2023/04/11 21:47:57;;;;;;;6.50;3.90;;;10.50;28.70;;;;;;10331400;28;20238;-68
2023/04/11 21:53:00;;;;;;;4.83;3.90;;;10.40;28.60;;;;;;10333129;28;20273;-68
2023/04/11 21:58:05;;;;;;;4.53;3.63;;;10.30;28.50;;;;;;10334010;28;20599;-68
2023/04/11 22:03:18;;;;;;;4.83;2.83;;;10.30;28.60;;;;;;10335385;28;20230;-72
2023/04/11 22:08:22;;;;;;;6.43;3.30;;;10.20;28.50;;;;;;10330251;28;20239;-72
2023/04/11 22:13:26;;;;;;;3.97;3.57;;;10.20;28.50;;;;;;10329670;28;20600;-72
2023/04/11 22:18:29;;;;;;;3.87;2.83;;;10.20;28.70;;;;;;10332947;28;20703;-72
2023/04/11 22:23:33;;;;;;;3.90;3.20;;;10.20;28.70;;;;;;10331111;28;20246;-72
2023/04/11 22:28:37;;;;;;;5.53;3.23;;;10.10;28.80;;;;;;10328367;28;20226;-66
2023/04/11 22:33:40;;;;;;;4.30;3.40;;;10.10;29.10;;;;;;10328663;28;20719;-66
2023/04/11 22:38:44;;;;;;;3.57;2.97;;;10.10;29.00;;;;;;10331572;28;20714;-66
2023/04/11 22:43:48;;;;;;;3.40;2.97;;;10.00;29.00;;;;;;10333553;28;20606;-66
2023/04/11 22:48:52;;;;;;;3.77;3.10;;;10.00;29.20;;;;;;10329908;28;20619;-66
2023/04/11 22:53:55;;;;;;;3.10;2.80;;;10.00;29.20;;;;;;10332596;28;20222;-66
2023/04/11 22:59:00;;;;;;;3.47;3.17;;;9.90;30.00;;;;;;10331848;28;20282;-66
2023/04/11 23:04:03;;;;;;;3.20;2.90;;;9.90;30.20;;;;;;10337414;28;21024;-66
2023/04/11 23:09:06;;;;;;;2.83;2.50;;;9.90;30.10;;;;;;10340018;28;20219;-66
2023/04/11 23:14:13;;;;;;;2.70;2.30;;;9.90;30.10;;;;;;10338305;28;20246;-66
2023/04/11 23:19:17;;;;;;;2.83;2.53;;;9.90;30.60;;;;;;10338597;28;20248;-66
2023/04/11 23:24:20;;;;;;;6.43;3.37;;;9.80;30.40;;;;;;10337009;28;20524;-66
2023/04/11 23:29:26;;;;;;;3.77;2.90;;;9.80;30.50;;;;;;10337640;28;20234;-66
2023/04/11 23:34:29;;;;;;;3.10;2.80;;;9.80;30.90;;;;;;10338465;28;20790;-66
2023/04/11 23:39:32;;;;;;;3.13;2.20;;;9.80;30.60;;;;;;10340252;28;20233;-66
2023/04/11 23:44:37;;;;;;;3.80;2.90;;;9.80;30.80;;;;;;10335699;28;20227;-66
2023/04/11 23:49:40;;;;;;;2.50;2.30;;;9.80;31.00;;;;;;10333697;28;20234;-72
2023/04/11 23:54:44;;;;;;;2.17;1.93;;;9.80;30.80;;;;;;10342111;28;20226;-72
2023/04/11 23:59:49;;;;;;;3.97;2.77;;;9.70;31.00;;;;;;10339969;28;20223;-72
